sensor_id;sensor_type;location;lat;lon;timestamp;pressure;altitude;pressure_sealevel;temperature;humidity
10948;BME280;5526;42.070;24.752;2023-02-20T00:00:21;99077.72;;;14.86;45.73
10948;BME280;5526;42.070;24.752;2023-02-20T00:02:48;99091.91;;;14.95;45.93
10948;BME280;5526;42.070;24.752;2023-02-20T00:05:16;99094.19;;;14.78;46.57
10948;BME280;5526;42.070;24.752;2023-02-20T00:07:43;99105.66;;;14.69;46.92
10948;BME280;5526;42.070;24.752;2023-02-20T00:10:11;99111.00;;;14.64;46.94
10948;BME280;5526;42.070;24.752;2023-02-20T00:12:38;99107.25;;;14.70;46.91
10948;BME280;5526;42.070;24.752;2023-02-20T00:15:08;99110.16;;;14.68;46.82
10948;BME280;5526;42.070;24.752;2023-02-20T00:17:35;99100.66;;;14.67;46.78
10948;BME280;5526;42.070;24.752;2023-02-20T00:20:03;99102.00;;;14.65;47.12
10948;BME280;5526;42.070;24.752;2023-02-20T00:22:30;99101.75;;;14.61;47.08
10948;BME280;5526;42.070;24.752;2023-02-20T00:24:57;99106.25;;;14.61;46.99
10948;BME280;5526;42.070;24.752;2023-02-20T00:27:24;99104.91;;;14.63;47.15
10948;BME280;5526;42.070;24.752;2023-02-20T00:29:51;99115.50;;;14.63;47.18
10948;BME280;5526;42.070;24.752;2023-02-20T00:32:19;99125.88;;;14.60;47.19
10948;BME280;5526;42.070;24.752;2023-02-20T00:34:46;99127.19;;;14.62;47.22
10948;BME280;5526;42.070;24.752;2023-02-20T00:37:13;99125.13;;;14.54;47.57
10948;BME280;5526;42.070;24.752;2023-02-20T00:39:40;99120.09;;;14.48;47.61
10948;BME280;5526;42.070;24.752;2023-02-20T00:42:07;99122.53;;;14.44;48.10
10948;BME280;5526;42.070;24.752;2023-02-20T00:44:35;99114.59;;;14.44;48.01
10948;BME280;5526;42.070;24.752;2023-02-20T00:47:02;99111.38;;;14.47;47.65
10948;BME280;5526;42.070;24.752;2023-02-20T00:49:30;99111.06;;;14.54;47.81
10948;BME280;5526;42.070;24.752;2023-02-20T00:51:57;99116.63;;;14.52;47.71
10948;BME280;5526;42.070;24.752;2023-02-20T00:54:24;99108.97;;;14.51;47.95
10948;BME280;5526;42.070;24.752;2023-02-20T00:56:51;99114.25;;;14.56;47.62
10948;BME280;5526;42.070;24.752;2023-02-20T00:59:18;99103.94;;;14.49;47.69
10948;BME280;5526;42.070;24.752;2023-02-20T01:01:45;99095.78;;;14.46;47.48
10948;BME280;5526;42.070;24.752;2023-02-20T01:04:12;99101.34;;;14.44;47.96
10948;BME280;5526;42.070;24.752;2023-02-20T01:06:40;99105.28;;;14.47;47.93
10948;BME280;5526;42.070;24.752;2023-02-20T01:09:07;99116.69;;;14.47;47.56
10948;BME280;5526;42.070;24.752;2023-02-20T01:11:34;99109.72;;;14.56;47.43
10948;BME280;5526;42.070;24.752;2023-02-20T01:14:02;99110.00;;;14.55;47.19
10948;BME280;5526;42.070;24.752;2023-02-20T01:16:29;99107.34;;;14.55;47.23
10948;BME280;5526;42.070;24.752;2023-02-20T01:18:56;99118.81;;;14.45;47.28
10948;BME280;5526;42.070;24.752;2023-02-20T01:21:23;99107.97;;;14.42;47.31
10948;BME280;5526;42.070;24.752;2023-02-20T01:23:51;99127.13;;;14.29;47.92
10948;BME280;5526;42.070;24.752;2023-02-20T01:26:18;99120.47;;;14.36;47.85
10948;BME280;5526;42.070;24.752;2023-02-20T01:28:45;99112.06;;;14.24;48.01
10948;BME280;5526;42.070;24.752;2023-02-20T01:31:14;99123.16;;;14.31;48.04
10948;BME280;5526;42.070;24.752;2023-02-20T01:33:41;99134.50;;;14.32;47.91
10948;BME280;5526;42.070;24.752;2023-02-20T01:36:09;99130.81;;;14.28;48.21
10948;BME280;5526;42.070;24.752;2023-02-20T01:38:38;99131.09;;;14.26;48.45
10948;BME280;5526;42.070;24.752;2023-02-20T01:41:08;99134.78;;;14.30;48.45
10948;BME280;5526;42.070;24.752;2023-02-20T01:43:35;99126.06;;;14.30;48.22
10948;BME280;5526;42.070;24.752;2023-02-20T01:46:48;99119.75;;;14.21;48.60
10948;BME280;5526;42.070;24.752;2023-02-20T01:49:21;99126.38;;;14.23;48.56
10948;BME280;5526;42.070;24.752;2023-02-20T01:51:52;99120.00;;;14.19;49.02
10948;BME280;5526;42.070;24.752;2023-02-20T01:54:21;99120.56;;;14.16;48.96
10948;BME280;5526;42.070;24.752;2023-02-20T01:56:51;99117.63;;;14.18;49.03
10948;BME280;5526;42.070;24.752;2023-02-20T01:59:20;99129.28;;;14.17;49.33
10948;BME280;5526;42.070;24.752;2023-02-20T02:01:49;99130.09;;;14.12;49.32
10948;BME280;5526;42.070;24.752;2023-02-20T02:04:16;99125.63;;;14.13;49.61
10948;BME280;5526;42.070;24.752;2023-02-20T02:06:47;99138.28;;;14.16;49.44
10948;BME280;5526;42.070;24.752;2023-02-20T02:09:20;99143.06;;;14.09;49.88
10948;BME280;5526;42.070;24.752;2023-02-20T02:11:51;99147.63;;;14.03;49.93
10948;BME280;5526;42.070;24.752;2023-02-20T02:14:18;99136.47;;;14.06;49.64
10948;BME280;5526;42.070;24.752;2023-02-20T02:16:55;99137.31;;;14.02;49.99
10948;BME280;5526;42.070;24.752;2023-02-20T02:25:51;99146.16;;;13.72;51.62
10948;BME280;5526;42.070;24.752;2023-02-20T02:28:43;99147.19;;;13.71;51.43
10948;BME280;5526;42.070;24.752;2023-02-20T02:31:47;99149.84;;;13.66;51.75
10948;BME280;5526;42.070;24.752;2023-02-20T02:34:47;99158.88;;;13.60;51.88
10948;BME280;5526;42.070;24.752;2023-02-20T02:37:27;99151.50;;;13.52;52.21
10948;BME280;5526;42.070;24.752;2023-02-20T02:40:02;99169.75;;;13.44;52.45
10948;BME280;5526;42.070;24.752;2023-02-20T02:42:40;99176.91;;;13.38;52.86
10948;BME280;5526;42.070;24.752;2023-02-20T02:45:15;99182.97;;;13.34;53.32
10948;BME280;5526;42.070;24.752;2023-02-20T02:47:47;99178.22;;;13.41;53.01
10948;BME280;5526;42.070;24.752;2023-02-20T02:50:18;99178.75;;;13.43;53.14
10948;BME280;5526;42.070;24.752;2023-02-20T02:52:49;99179.53;;;13.38;53.03
10948;BME280;5526;42.070;24.752;2023-02-20T02:55:20;99180.06;;;13.35;53.38
10948;BME280;5526;42.070;24.752;2023-02-20T02:57:48;99174.56;;;13.12;54.17
10948;BME280;5526;42.070;24.752;2023-02-20T03:00:18;99182.22;;;13.13;54.46
10948;BME280;5526;42.070;24.752;2023-02-20T03:02:51;99200.16;;;13.16;54.23
10948;BME280;5526;42.070;24.752;2023-02-20T03:05:24;99204.94;;;13.14;54.66
10948;BME280;5526;42.070;24.752;2023-02-20T03:08:10;99220.00;;;13.09;55.08
10948;BME280;5526;42.070;24.752;2023-02-20T03:10:59;99218.09;;;12.94;55.50
10948;BME280;5526;42.070;24.752;2023-02-20T03:13:29;99224.16;;;12.89;55.72
10948;BME280;5526;42.070;24.752;2023-02-20T03:16:18;99220.19;;;12.92;55.54
10948;BME280;5526;42.070;24.752;2023-02-20T03:18:47;99206.44;;;12.85;55.76
10948;BME280;5526;42.070;24.752;2023-02-20T03:21:17;99184.78;;;12.73;56.05
10948;BME280;5526;42.070;24.752;2023-02-20T03:23:53;99216.50;;;12.83;55.33
10948;BME280;5526;42.070;24.752;2023-02-20T03:26:27;99217.56;;;12.87;55.64
10948;BME280;5526;42.070;24.752;2023-02-20T03:29:00;99214.91;;;12.82;55.58
10948;BME280;5526;42.070;24.752;2023-02-20T03:31:33;99216.22;;;12.79;55.50
10948;BME280;5526;42.070;24.752;2023-02-20T03:34:05;99224.94;;;12.85;55.58
10948;BME280;5526;42.070;24.752;2023-02-20T03:36:54;99238.16;;;12.80;55.57
10948;BME280;5526;42.070;24.752;2023-02-20T03:39:44;99222.31;;;12.80;55.92
10948;BME280;5526;42.070;24.752;2023-02-20T03:42:34;99226.00;;;12.74;56.18
10948;BME280;5526;42.070;24.752;2023-02-20T03:45:20;99220.19;;;12.77;55.93
10948;BME280;5526;42.070;24.752;2023-02-20T03:47:52;99231.81;;;12.76;56.22
10948;BME280;5526;42.070;24.752;2023-02-20T03:50:20;99226.00;;;12.74;56.42
10948;BME280;5526;42.070;24.752;2023-02-20T03:52:48;99239.72;;;12.66;56.78
10948;BME280;5526;42.070;24.752;2023-02-20T03:55:16;99244.44;;;12.64;56.73
10948;BME280;5526;42.070;24.752;2023-02-20T03:57:47;99241.56;;;12.65;56.76
10948;BME280;5526;42.070;24.752;2023-02-20T04:00:18;99240.50;;;12.66;56.49
10948;BME280;5526;42.070;24.752;2023-02-20T04:02:49;99253.94;;;12.60;57.01
10948;BME280;5526;42.070;24.752;2023-02-20T04:05:20;99250.00;;;12.67;56.83
10948;BME280;5526;42.070;24.752;2023-02-20T04:07:51;99271.91;;;12.68;56.99
10948;BME280;5526;42.070;24.752;2023-02-20T04:10:25;99272.44;;;12.60;57.15
10948;BME280;5526;42.070;24.752;2023-02-20T04:12:55;99269.78;;;12.60;57.17
10948;BME280;5526;42.070;24.752;2023-02-20T04:15:23;99270.28;;;12.47;57.65
10948;BME280;5526;42.070;24.752;2023-02-20T04:17:55;99267.66;;;12.52;57.40
10948;BME280;5526;42.070;24.752;2023-02-20T04:20:24;99251.50;;;12.43;57.09
10948;BME280;5526;42.070;24.752;2023-02-20T04:22:53;99274.25;;;12.49;57.03
10948;BME280;5526;42.070;24.752;2023-02-20T04:25:30;99281.09;;;12.50;56.67
10948;BME280;5526;42.070;24.752;2023-02-20T04:28:00;99270.53;;;12.50;56.88
10948;BME280;5526;42.070;24.752;2023-02-20T04:30:28;99263.94;;;12.53;56.78
10948;BME280;5526;42.070;24.752;2023-02-20T04:32:55;99271.09;;;12.57;56.50
10948;BME280;5526;42.070;24.752;2023-02-20T04:35:22;99261.31;;;12.58;56.07
10948;BME280;5526;42.070;24.752;2023-02-20T04:37:50;99265.56;;;12.59;55.62
10948;BME280;5526;42.070;24.752;2023-02-20T04:40:19;99278.25;;;12.67;54.84
10948;BME280;5526;42.070;24.752;2023-02-20T04:42:49;99280.91;;;12.62;54.81
10948;BME280;5526;42.070;24.752;2023-02-20T04:45:16;99266.88;;;12.61;54.79
10948;BME280;5526;42.070;24.752;2023-02-20T04:47:43;99256.84;;;12.58;54.89
10948;BME280;5526;42.070;24.752;2023-02-20T04:50:14;99254.47;;;12.57;54.62
10948;BME280;5526;42.070;24.752;2023-02-20T04:52:43;99267.13;;;12.55;54.65
10948;BME280;5526;42.070;24.752;2023-02-20T04:55:10;99282.19;;;12.54;54.58
10948;BME280;5526;42.070;24.752;2023-02-20T04:57:37;99283.50;;;12.52;54.38
10948;BME280;5526;42.070;24.752;2023-02-20T05:00:07;99286.13;;;12.57;54.07
10948;BME280;5526;42.070;24.752;2023-02-20T05:02:37;99300.16;;;12.57;53.81
10948;BME280;5526;42.070;24.752;2023-02-20T05:05:05;99287.69;;;12.48;53.86
10948;BME280;5526;42.070;24.752;2023-02-20T05:07:32;99293.50;;;12.45;54.06
10948;BME280;5526;42.070;24.752;2023-02-20T05:09:59;99293.50;;;12.45;53.97
10948;BME280;5526;42.070;24.752;2023-02-20T05:12:26;99275.00;;;12.45;53.84
10948;BME280;5526;42.070;24.752;2023-02-20T05:14:53;99281.88;;;12.46;53.84
10948;BME280;5526;42.070;24.752;2023-02-20T05:17:21;99287.94;;;12.41;53.75
10948;BME280;5526;42.070;24.752;2023-02-20T05:19:48;99280.03;;;12.41;53.69
10948;BME280;5526;42.070;24.752;2023-02-20T05:22:15;99272.91;;;12.47;53.77
10948;BME280;5526;42.070;24.752;2023-02-20T05:24:45;99263.69;;;12.44;54.06
10948;BME280;5526;42.070;24.752;2023-02-20T05:27:14;99264.97;;;12.42;54.14
10948;BME280;5526;42.070;24.752;2023-02-20T05:29:45;99272.13;;;12.46;53.85
10948;BME280;5526;42.070;24.752;2023-02-20T05:32:12;99273.69;;;12.42;53.95
10948;BME280;5526;42.070;24.752;2023-02-20T05:34:41;99266.00;;;12.31;53.55
10948;BME280;5526;42.070;24.752;2023-02-20T05:37:08;99293.22;;;12.41;53.34
10948;BME280;5526;42.070;24.752;2023-02-20T05:39:35;99295.06;;;12.46;53.05
10948;BME280;5526;42.070;24.752;2023-02-20T05:42:02;99300.88;;;12.43;52.76
10948;BME280;5526;42.070;24.752;2023-02-20T05:44:29;99320.69;;;12.45;52.54
10948;BME280;5526;42.070;24.752;2023-02-20T05:46:56;99322.50;;;12.40;52.40
10948;BME280;5526;42.070;24.752;2023-02-20T05:49:23;99314.63;;;12.50;52.56
10948;BME280;5526;42.070;24.752;2023-02-20T05:51:54;99325.72;;;12.47;52.33
10948;BME280;5526;42.070;24.752;2023-02-20T05:54:22;99333.09;;;12.45;52.28
10948;BME280;5526;42.070;24.752;2023-02-20T05:56:49;99336.53;;;12.45;52.25
10948;BME280;5526;42.070;24.752;2023-02-20T05:59:19;99343.66;;;12.50;52.18
10948;BME280;5526;42.070;24.752;2023-02-20T06:01:46;99364.28;;;12.53;52.39
10948;BME280;5526;42.070;24.752;2023-02-20T06:04:17;99349.97;;;12.44;51.84
10948;BME280;5526;42.070;24.752;2023-02-20T06:06:44;99371.19;;;12.59;51.15
10948;BME280;5526;42.070;24.752;2023-02-20T06:09:12;99378.13;;;12.80;50.89
10948;BME280;5526;42.070;24.752;2023-02-20T06:11:46;99381.06;;;12.83;50.54
10948;BME280;5526;42.070;24.752;2023-02-20T06:14:15;99386.63;;;12.97;49.72
10948;BME280;5526;42.070;24.752;2023-02-20T06:16:43;99385.56;;;12.93;49.30
10948;BME280;5526;42.070;24.752;2023-02-20T06:19:11;99403.53;;;12.91;49.01
10948;BME280;5526;42.070;24.752;2023-02-20T06:21:44;99405.22;;;13.07;48.22
10948;BME280;5526;42.070;24.752;2023-02-20T06:24:12;99406.59;;;13.25;47.61
10948;BME280;5526;42.070;24.752;2023-02-20T06:26:39;99420.34;;;13.32;47.30
10948;BME280;5526;42.070;24.752;2023-02-20T06:29:06;99432.25;;;13.34;46.63
10948;BME280;5526;42.070;24.752;2023-02-20T06:31:34;99426.97;;;13.39;46.56
10948;BME280;5526;42.070;24.752;2023-02-20T06:34:01;99423.00;;;13.37;46.45
10948;BME280;5526;42.070;24.752;2023-02-20T06:36:30;99427.00;;;13.49;45.78
10948;BME280;5526;42.070;24.752;2023-02-20T06:38:58;99409.31;;;13.65;45.63
10948;BME280;5526;42.070;24.752;2023-02-20T06:41:26;99416.19;;;13.56;45.13
10948;BME280;5526;42.070;24.752;2023-02-20T06:43:53;99393.97;;;13.57;45.42
10948;BME280;5526;42.070;24.752;2023-02-20T06:46:20;99419.41;;;13.78;45.07
10948;BME280;5526;42.070;24.752;2023-02-20T06:48:49;99404.56;;;13.82;44.97
10948;BME280;5526;42.070;24.752;2023-02-20T06:51:18;99412.50;;;13.77;44.96
10948;BME280;5526;42.070;24.752;2023-02-20T06:53:45;99400.31;;;13.81;44.68
10948;BME280;5526;42.070;24.752;2023-02-20T06:56:15;99396.91;;;13.85;44.62
10948;BME280;5526;42.070;24.752;2023-02-20T06:58:47;99391.88;;;13.94;44.62
10948;BME280;5526;42.070;24.752;2023-02-20T07:01:14;99398.50;;;13.96;44.16
10948;BME280;5526;42.070;24.752;2023-02-20T07:03:41;99401.94;;;14.02;43.59
10948;BME280;5526;42.070;24.752;2023-02-20T07:06:09;99375.22;;;13.88;43.65
10948;BME280;5526;42.070;24.752;2023-02-20T07:08:37;99384.44;;;14.21;43.11
10948;BME280;5526;42.070;24.752;2023-02-20T07:11:04;99388.69;;;14.12;42.66
10948;BME280;5526;42.070;24.752;2023-02-20T07:13:31;99385.50;;;14.20;42.66
10948;BME280;5526;42.070;24.752;2023-02-20T07:15:59;99384.72;;;14.29;43.00
10948;BME280;5526;42.070;24.752;2023-02-20T07:18:26;99391.59;;;14.40;42.37
10948;BME280;5526;42.070;24.752;2023-02-20T07:20:54;99383.59;;;14.55;41.79
10948;BME280;5526;42.070;24.752;2023-02-20T07:23:21;99384.09;;;14.67;41.71
10948;BME280;5526;42.070;24.752;2023-02-20T07:25:48;99388.13;;;14.45;41.74
10948;BME280;5526;42.070;24.752;2023-02-20T07:28:16;99388.63;;;14.57;41.13
10948;BME280;5526;42.070;24.752;2023-02-20T07:30:43;99384.59;;;14.69;41.33
10948;BME280;5526;42.070;24.752;2023-02-20T07:33:12;99390.97;;;14.68;41.10
10948;BME280;5526;42.070;24.752;2023-02-20T07:35:39;99402.06;;;14.80;41.14
10948;BME280;5526;42.070;24.752;2023-02-20T07:38:06;99373.44;;;14.82;41.03
10948;BME280;5526;42.070;24.752;2023-02-20T07:40:33;99415.00;;;14.92;41.53
10948;BME280;5526;42.070;24.752;2023-02-20T07:43:00;99406.03;;;14.78;42.36
10948;BME280;5526;42.070;24.752;2023-02-20T07:45:27;99404.72;;;14.80;43.02
10948;BME280;5526;42.070;24.752;2023-02-20T07:47:54;99407.19;;;14.57;43.26
10948;BME280;5526;42.070;24.752;2023-02-20T07:50:23;99403.97;;;14.65;42.99
10948;BME280;5526;42.070;24.752;2023-02-20T07:52:50;99390.94;;;14.78;42.16
10948;BME280;5526;42.070;24.752;2023-02-20T07:55:18;99405.03;;;14.69;41.42
10948;BME280;5526;42.070;24.752;2023-02-20T07:57:46;99395.44;;;14.78;41.39
10948;BME280;5526;42.070;24.752;2023-02-20T08:00:16;99404.75;;;14.70;41.12
10948;BME280;5526;42.070;24.752;2023-02-20T08:02:43;99351.53;;;14.52;40.85
10948;BME280;5526;42.070;24.752;2023-02-20T08:05:10;99389.84;;;14.84;41.04
10948;BME280;5526;42.070;24.752;2023-02-20T08:07:43;99390.06;;;15.03;40.63
10948;BME280;5526;42.070;24.752;2023-02-20T08:10:11;99388.13;;;15.18;40.15
10948;BME280;5526;42.070;24.752;2023-02-20T08:12:38;99386.28;;;15.14;40.56
10948;BME280;5526;42.070;24.752;2023-02-20T08:15:05;99386.13;;;14.90;40.54
10948;BME280;5526;42.070;24.752;2023-02-20T08:17:34;99383.31;;;15.25;39.69
10948;BME280;5526;42.070;24.752;2023-02-20T08:20:02;99388.53;;;15.45;39.81
10948;BME280;5526;42.070;24.752;2023-02-20T08:22:29;99386.31;;;15.57;39.46
10948;BME280;5526;42.070;24.752;2023-02-20T08:24:57;99384.91;;;15.65;38.81
10948;BME280;5526;42.070;24.752;2023-02-20T08:27:24;99386.69;;;15.79;38.68
10948;BME280;5526;42.070;24.752;2023-02-20T08:29:52;99376.06;;;16.08;38.39
10948;BME280;5526;42.070;24.752;2023-02-20T08:32:19;99406.31;;;16.12;37.13
10948;BME280;5526;42.070;24.752;2023-02-20T08:34:46;99393.84;;;16.12;36.63
10948;BME280;5526;42.070;24.752;2023-02-20T08:37:13;99381.81;;;15.91;35.65
10948;BME280;5526;42.070;24.752;2023-02-20T08:39:40;99395.47;;;15.75;34.70
10948;BME280;5526;42.070;24.752;2023-02-20T08:42:09;99378.59;;;15.94;35.03
10948;BME280;5526;42.070;24.752;2023-02-20T08:44:36;99389.63;;;15.78;33.88
10948;BME280;5526;42.070;24.752;2023-02-20T08:47:03;99380.50;;;15.89;33.57
10948;BME280;5526;42.070;24.752;2023-02-20T08:49:30;99375.91;;;15.99;33.14
10948;BME280;5526;42.070;24.752;2023-02-20T08:51:56;99383.53;;;16.06;32.27
10948;BME280;5526;42.070;24.752;2023-02-20T08:54:23;99390.50;;;16.30;32.03
10948;BME280;5526;42.070;24.752;2023-02-20T08:56:50;99390.75;;;16.00;33.15
10948;BME280;5526;42.070;24.752;2023-02-20T08:59:19;99391.22;;;16.07;33.37
10948;BME280;5526;42.070;24.752;2023-02-20T09:01:46;99387.69;;;15.88;33.50
10948;BME280;5526;42.070;24.752;2023-02-20T09:04:13;99376.81;;;16.18;32.60
10948;BME280;5526;42.070;24.752;2023-02-20T09:06:41;99384.84;;;16.37;31.70
10948;BME280;5526;42.070;24.752;2023-02-20T09:09:08;99385.41;;;16.34;30.86
10948;BME280;5526;42.070;24.752;2023-02-20T09:11:35;99388.59;;;16.36;29.35
10948;BME280;5526;42.070;24.752;2023-02-20T09:14:02;99394.13;;;16.39;29.44
10948;BME280;5526;42.070;24.752;2023-02-20T09:16:30;99399.63;;;16.19;29.92
10948;BME280;5526;42.070;24.752;2023-02-20T09:18:57;99417.81;;;16.31;29.97
10948;BME280;5526;42.070;24.752;2023-02-20T09:21:25;99405.56;;;16.63;29.72
10948;BME280;5526;42.070;24.752;2023-02-20T09:23:53;99398.38;;;16.87;30.13
10948;BME280;5526;42.070;24.752;2023-02-20T09:26:20;99401.28;;;16.67;30.05
10948;BME280;5526;42.070;24.752;2023-02-20T09:28:47;99418.13;;;16.58;29.57
10948;BME280;5526;42.070;24.752;2023-02-20T09:31:14;99410.31;;;16.43;30.42
10948;BME280;5526;42.070;24.752;2023-02-20T09:33:45;99390.19;;;16.60;29.24
10948;BME280;5526;42.070;24.752;2023-02-20T09:36:12;99382.28;;;16.55;30.37
10948;BME280;5526;42.070;24.752;2023-02-20T09:38:39;99365.16;;;16.66;30.02
10948;BME280;5526;42.070;24.752;2023-02-20T09:41:12;99381.03;;;16.71;30.02
10948;BME280;5526;42.070;24.752;2023-02-20T09:43:48;99383.50;;;17.10;29.63
10948;BME280;5526;42.070;24.752;2023-02-20T09:46:19;99363.13;;;16.58;28.83
10948;BME280;5526;42.070;24.752;2023-02-20T09:49:01;99377.19;;;16.82;26.83
10948;BME280;5526;42.070;24.752;2023-02-20T09:51:32;99364.97;;;16.81;26.42
10948;BME280;5526;42.070;24.752;2023-02-20T09:54:03;99348.84;;;16.97;25.35
10948;BME280;5526;42.070;24.752;2023-02-20T09:56:35;99357.50;;;17.02;25.42
10948;BME280;5526;42.070;24.752;2023-02-20T09:59:06;99351.72;;;17.00;23.75
10948;BME280;5526;42.070;24.752;2023-02-20T10:01:40;99375.34;;;17.02;23.86
10948;BME280;5526;42.070;24.752;2023-02-20T10:04:12;99375.22;;;17.12;23.35
10948;BME280;5526;42.070;24.752;2023-02-20T10:06:43;99373.22;;;17.22;22.81
10948;BME280;5526;42.070;24.752;2023-02-20T10:09:13;99381.22;;;16.80;22.99
10948;BME280;5526;42.070;24.752;2023-02-20T10:11:51;99370.81;;;17.02;21.94
10948;BME280;5526;42.070;24.752;2023-02-20T10:14:33;99392.31;;;17.06;22.18
10948;BME280;5526;42.070;24.752;2023-02-20T10:17:12;99392.94;;;17.77;21.82
10948;BME280;5526;42.070;24.752;2023-02-20T10:19:49;99389.56;;;17.53;21.59
10948;BME280;5526;42.070;24.752;2023-02-20T10:22:19;99391.69;;;17.14;22.49
10948;BME280;5526;42.070;24.752;2023-02-20T10:25:02;99430.44;;;16.72;21.12
10948;BME280;5526;42.070;24.752;2023-02-20T10:27:40;99407.50;;;16.81;21.01
10948;BME280;5526;42.070;24.752;2023-02-20T10:30:11;99400.53;;;17.28;20.30
10948;BME280;5526;42.070;24.752;2023-02-20T10:32:42;99377.00;;;16.98;20.15
10948;BME280;5526;42.070;24.752;2023-02-20T10:35:17;99417.56;;;17.27;21.46
10948;BME280;5526;42.070;24.752;2023-02-20T10:37:51;99419.81;;;16.72;20.36
10948;BME280;5526;42.070;24.752;2023-02-20T10:40:22;99406.50;;;16.77;21.18
10948;BME280;5526;42.070;24.752;2023-02-20T10:42:54;99416.25;;;16.82;21.29
10948;BME280;5526;42.070;24.752;2023-02-20T10:45:32;99403.34;;;16.94;20.84
10948;BME280;5526;42.070;24.752;2023-02-20T10:48:04;99395.09;;;16.95;20.91
10948;BME280;5526;42.070;24.752;2023-02-20T10:50:36;99403.88;;;17.57;20.85
10948;BME280;5526;42.070;24.752;2023-02-20T10:53:12;99379.38;;;17.60;20.43
10948;BME280;5526;42.070;24.752;2023-02-20T10:55:46;99376.56;;;17.09;20.54
10948;BME280;5526;42.070;24.752;2023-02-20T10:58:20;99400.22;;;17.11;20.59
10948;BME280;5526;42.070;24.752;2023-02-20T11:00:51;99382.81;;;17.42;20.72
10948;BME280;5526;42.070;24.752;2023-02-20T11:03:25;99378.38;;;17.32;20.41
10948;BME280;5526;42.070;24.752;2023-02-20T11:05:58;99379.19;;;18.02;19.47
10948;BME280;5526;42.070;24.752;2023-02-20T11:08:27;99371.78;;;17.30;19.96
10948;BME280;5526;42.070;24.752;2023-02-20T11:10:58;99382.16;;;17.50;20.28
10948;BME280;5526;42.070;24.752;2023-02-20T11:13:25;99379.91;;;17.38;20.30
10948;BME280;5526;42.070;24.752;2023-02-20T11:15:54;99393.72;;;17.59;20.09
10948;BME280;5526;42.070;24.752;2023-02-20T11:18:24;99389.72;;;17.43;20.27
10948;BME280;5526;42.070;24.752;2023-02-20T11:20:55;99377.75;;;17.59;20.30
10948;BME280;5526;42.070;24.752;2023-02-20T11:23:40;99380.34;;;17.45;20.35
10948;BME280;5526;42.070;24.752;2023-02-20T11:26:31;99382.50;;;17.62;20.36
10948;BME280;5526;42.070;24.752;2023-02-20T11:29:04;99356.44;;;17.40;20.48
10948;BME280;5526;42.070;24.752;2023-02-20T11:31:37;99364.97;;;17.42;20.29
10948;BME280;5526;42.070;24.752;2023-02-20T11:34:14;99358.72;;;17.52;20.06
10948;BME280;5526;42.070;24.752;2023-02-20T11:36:45;99359.63;;;17.61;19.78
10948;BME280;5526;42.070;24.752;2023-02-20T11:39:20;99356.13;;;17.47;20.28
10948;BME280;5526;42.070;24.752;2023-02-20T11:41:52;99372.97;;;17.42;19.99
10948;BME280;5526;42.070;24.752;2023-02-20T11:44:31;99366.31;;;17.77;20.43
10948;BME280;5526;42.070;24.752;2023-02-20T11:50:09;99370.59;;;17.91;20.04
10948;BME280;5526;42.070;24.752;2023-02-20T11:52:54;99369.47;;;17.79;20.52
10948;BME280;5526;42.070;24.752;2023-02-20T11:55:24;99371.38;;;17.92;20.38
10948;BME280;5526;42.070;24.752;2023-02-20T11:57:51;99362.50;;;17.64;19.89
10948;BME280;5526;42.070;24.752;2023-02-20T12:00:20;99367.06;;;17.64;20.16
10948;BME280;5526;42.070;24.752;2023-02-20T12:02:49;99382.13;;;17.87;20.86
10948;BME280;5526;42.070;24.752;2023-02-20T12:05:17;99365.31;;;17.73;20.13
10948;BME280;5526;42.070;24.752;2023-02-20T12:07:54;99371.25;;;17.83;20.24
10948;BME280;5526;42.070;24.752;2023-02-20T12:10:30;99365.63;;;17.85;20.15
10948;BME280;5526;42.070;24.752;2023-02-20T12:13:01;99358.88;;;18.06;20.34
10948;BME280;5526;42.070;24.752;2023-02-20T12:15:29;99359.88;;;18.10;20.29
10948;BME280;5526;42.070;24.752;2023-02-20T12:18:09;99378.03;;;18.08;20.51
10948;BME280;5526;42.070;24.752;2023-02-20T12:20:44;99381.03;;;18.20;20.75
10948;BME280;5526;42.070;24.752;2023-02-20T12:23:22;99362.66;;;17.73;20.82
10948;BME280;5526;42.070;24.752;2023-02-20T12:26:02;99370.25;;;17.79;20.84
10948;BME280;5526;42.070;24.752;2023-02-20T12:28:39;99382.94;;;18.01;20.52
10948;BME280;5526;42.070;24.752;2023-02-20T12:31:20;99372.13;;;18.11;20.75
10948;BME280;5526;42.070;24.752;2023-02-20T12:34:02;99359.59;;;18.43;21.16
10948;BME280;5526;42.070;24.752;2023-02-20T12:36:34;99351.63;;;18.25;20.67
10948;BME280;5526;42.070;24.752;2023-02-20T12:39:15;99340.88;;;18.30;20.93
10948;BME280;5526;42.070;24.752;2023-02-20T12:41:51;99350.00;;;17.97;21.04
10948;BME280;5526;42.070;24.752;2023-02-20T12:44:37;99352.88;;;18.14;21.12
10948;BME280;5526;42.070;24.752;2023-02-20T12:47:15;99358.31;;;18.09;21.03
10948;BME280;5526;42.070;24.752;2023-02-20T12:50:15;99359.78;;;18.47;20.77
10948;BME280;5526;42.070;24.752;2023-02-20T12:52:56;99351.31;;;18.26;20.75
10948;BME280;5526;42.070;24.752;2023-02-20T12:55:32;99387.34;;;18.24;20.80
10948;BME280;5526;42.070;24.752;2023-02-20T12:58:15;99351.88;;;18.10;21.06
10948;BME280;5526;42.070;24.752;2023-02-20T13:00:48;99353.78;;;18.09;21.35
10948;BME280;5526;42.070;24.752;2023-02-20T13:03:19;99351.72;;;18.20;21.40
10948;BME280;5526;42.070;24.752;2023-02-20T13:05:49;99350.09;;;17.92;21.68
10948;BME280;5526;42.070;24.752;2023-02-20T13:08:22;99356.56;;;17.86;21.73
10948;BME280;5526;42.070;24.752;2023-02-20T13:10:56;99349.41;;;18.00;21.75
10948;BME280;5526;42.070;24.752;2023-02-20T13:13:26;99349.63;;;18.17;21.36
10948;BME280;5526;42.070;24.752;2023-02-20T13:16:00;99361.53;;;18.06;21.42
10948;BME280;5526;42.070;24.752;2023-02-20T13:18:35;99356.13;;;17.97;21.31
10948;BME280;5526;42.070;24.752;2023-02-20T13:21:09;99370.19;;;17.66;21.66
10948;BME280;5526;42.070;24.752;2023-02-20T13:23:37;99365.09;;;17.51;21.42
10948;BME280;5526;42.070;24.752;2023-02-20T13:29:16;99368.97;;;18.09;21.80
10948;BME280;5526;42.070;24.752;2023-02-20T13:31:46;99343.91;;;17.96;21.50